FRR weather

Public forecast

Using degrees Fahrenheit for public forecast. Weather courtesy of forecast.io.

Current aviation weather report (METAR) for Front Royal Warren County Airport

Retrieved 2020/08/14 16:35 UTC (20 minutes ago):

KFRR 141635Z AUTO 00000KT 10SM SCT026 SCT036 BKN085 27/21 A3001 RMK AO1

Closest aviation forecast (TAF) to Front Royal Warren County Airport

Closest forecast is Eastern WV Regional Airport/Shepherd Field, 31.7 nm (58.6 km) NNE. Retrieved 2020/08/14 12:39 UTC (4 hours ago):

TAF KMRB 141136Z 1412/1512 03005KT 4SM BR BKN025 FM141400 05007KT P6SM BKN035 FM141900 06007KT P6SM BKN060 FM142300 08005KT P6SM BKN070 FM150800 03004KT 4SM BR BKN070 FM151100 05004KT 6SM BR BKN080